createdAt,value
2022-10-13T00:01:17.763Z,101746.01
2022-10-13T00:06:26.347Z,101752.43
2022-10-13T00:11:32.403Z,101748.67
2022-10-13T00:16:38.193Z,101741.87
2022-10-13T00:21:43.706Z,101742.06
2022-10-13T00:26:52.456Z,101740.11
2022-10-13T00:31:58.053Z,101741.86
2022-10-13T00:37:03.567Z,101730.20
2022-10-13T00:42:16.453Z,101712.84
2022-10-13T00:47:22.948Z,101738.02
2022-10-13T00:52:29.275Z,101721.55
2022-10-13T00:57:35.790Z,101709.67
2022-10-13T01:02:41.317Z,101708.50
2022-10-13T01:07:49.212Z,101708.16
2022-10-13T01:12:57.636Z,101700.66
2022-10-13T01:18:14.729Z,101695.70
2022-10-13T01:23:39.874Z,101697.55
2022-10-13T01:29:09.562Z,101691.73
2022-10-13T01:34:21.543Z,101683.12
2022-10-13T01:39:29.982Z,101683.26
2022-10-13T01:44:38.416Z,101677.04
2022-10-13T01:49:45.644Z,101668.04
2022-10-13T01:54:53.364Z,101666.35
2022-10-13T02:00:04.110Z,101669.28
2022-10-13T02:05:19.824Z,101664.05
2022-10-13T02:10:37.132Z,101652.97
2022-10-13T02:15:48.952Z,101650.78
2022-10-13T02:20:56.061Z,101647.22
2022-10-13T02:26:01.606Z,101662.18
2022-10-13T02:31:08.729Z,101657.97
2022-10-13T02:36:14.449Z,101651.16
2022-10-13T02:41:19.889Z,101651.05
2022-10-13T02:46:25.868Z,101652.99
2022-10-13T02:51:34.086Z,101649.20
2022-10-13T02:56:38.514Z,101638.16
2022-10-13T03:01:44.794Z,101629.65
2022-10-13T03:06:50.521Z,101627.85
2022-10-13T03:11:56.244Z,101611.03
2022-10-13T03:17:01.962Z,101605.30
2022-10-13T03:22:07.487Z,101596.83
2022-10-13T03:27:13.036Z,101585.76
2022-10-13T03:32:19.011Z,101590.42
2022-10-13T03:37:24.607Z,101582.95
2022-10-13T03:42:30.047Z,101579.08
2022-10-13T03:47:37.448Z,101578.87
2022-10-13T03:52:43.049Z,101568.78
2022-10-13T03:57:48.565Z,101570.68
2022-10-13T04:02:53.957Z,101570.41
2022-10-13T04:07:59.419Z,101565.02
2022-10-13T04:13:05.977Z,101560.10
2022-10-13T04:18:12.864Z,101557.48
2022-10-13T04:23:18.861Z,101553.49
2022-10-13T04:28:25.648Z,101554.36
2022-10-13T04:33:31.534Z,101544.52
2022-10-13T04:38:37.461Z,101537.76
2022-10-13T04:43:43.370Z,101538.69
2022-10-13T04:48:49.666Z,101540.58
2022-10-13T04:54:01.255Z,101537.91
2022-10-13T04:59:06.759Z,101542.65
2022-10-13T05:04:12.498Z,101533.97
2022-10-13T05:09:18.099Z,101529.38
2022-10-13T05:14:24.491Z,101515.05
2022-10-13T05:19:30.163Z,101525.34
2022-10-13T05:24:38.748Z,101519.03
2022-10-13T05:29:44.198Z,101507.36
2022-10-13T05:34:50.196Z,101502.75
2022-10-13T05:39:55.809Z,101494.30
2022-10-13T05:45:01.186Z,101494.94
2022-10-13T05:50:07.650Z,101491.06
2022-10-13T05:55:16.068Z,101494.70
2022-10-13T06:00:21.844Z,101493.38
2022-10-13T06:05:28.631Z,101497.38
2022-10-13T06:10:34.151Z,101495.73
2022-10-13T06:15:39.658Z,101493.32
2022-10-13T06:20:45.783Z,101493.23
2022-10-13T06:25:54.865Z,101489.02
2022-10-13T06:31:00.330Z,101478.05
2022-10-13T06:36:07.107Z,101471.03
2022-10-13T06:41:14.405Z,101466.09
2022-10-13T06:46:20.653Z,101463.16
2022-10-13T06:51:26.421Z,101463.66
2022-10-13T06:56:31.955Z,101462.91
2022-10-13T07:01:41.532Z,101474.13
2022-10-13T07:06:46.304Z,101471.91
2022-10-13T07:11:51.751Z,101462.38
2022-10-13T07:16:57.347Z,101466.01
2022-10-13T07:22:02.820Z,101463.62
2022-10-13T07:27:08.353Z,101472.44
2022-10-13T07:32:13.896Z,101470.09
2022-10-13T07:37:19.658Z,101472.98
2022-10-13T07:42:25.415Z,101472.89
2022-10-13T07:47:31.025Z,101470.89
2022-10-13T07:52:39.364Z,101462.12
2022-10-13T07:57:46.286Z,101454.64
2022-10-13T08:02:52.334Z,101455.88
2022-10-13T08:07:58.588Z,101446.16
2022-10-13T08:13:04.175Z,101447.55
2022-10-13T08:18:11.165Z,101439.29
2022-10-13T08:23:16.718Z,101432.51
2022-10-13T08:28:26.857Z,101431.53
2022-10-13T08:33:32.403Z,101437.45
2022-10-13T08:38:37.828Z,101425.51
2022-10-13T08:44:13.401Z,101430.59
2022-10-13T08:48:52.205Z,101432.33
2022-10-13T08:53:59.897Z,101436.59
2022-10-13T08:59:06.791Z,101436.98
2022-10-13T09:04:36.403Z,101433.11
2022-10-13T09:09:42.088Z,101437.45
2022-10-13T09:15:09.821Z,101438.92
2022-10-13T09:20:21.127Z,101434.13
2022-10-13T09:25:26.596Z,101432.43
2022-10-13T09:30:38.441Z,101428.58
2022-10-13T09:35:46.851Z,101420.89
2022-10-13T09:41:09.781Z,101419.12
2022-10-13T09:46:24.051Z,101405.50
2022-10-13T09:51:35.195Z,101397.09
2022-10-13T09:56:45.330Z,101387.75
2022-10-13T10:01:54.261Z,101385.45
2022-10-13T10:06:59.820Z,101392.23
2022-10-13T10:12:07.743Z,101396.17
2022-10-13T10:17:19.786Z,101399.66
2022-10-13T10:22:51.036Z,101396.93
2022-10-13T10:28:16.329Z,101391.64
2022-10-13T10:33:37.025Z,101393.13
2022-10-13T10:39:04.634Z,101381.07
2022-10-13T10:44:23.889Z,101360.53
2022-10-13T10:49:35.455Z,101363.13
2022-10-13T10:54:49.318Z,101354.36
2022-10-13T10:59:58.050Z,101354.20
2022-10-13T11:05:06.314Z,101353.66
2022-10-13T11:10:22.563Z,101343.61
2022-10-13T11:15:33.720Z,101341.55
2022-10-13T11:20:47.954Z,101332.03
2022-10-13T11:25:55.073Z,101324.45
2022-10-13T11:31:09.620Z,101320.81
2022-10-13T11:36:40.358Z,101312.55
2022-10-13T11:41:51.578Z,101309.48
2022-10-13T11:47:18.572Z,101294.23
2022-10-13T11:52:45.558Z,101288.23
2022-10-13T11:57:50.935Z,101280.01
2022-10-13T12:02:56.953Z,101274.86
2022-10-13T12:08:05.073Z,101270.09
2022-10-13T12:13:22.607Z,101255.30
2022-10-13T12:18:38.254Z,101252.84
2022-10-13T12:23:44.356Z,101239.94
2022-10-13T12:29:04.274Z,101248.77
2022-10-13T12:34:18.264Z,101237.95
2022-10-13T12:39:25.478Z,101236.86
2022-10-13T12:44:33.073Z,101234.44
2022-10-13T12:49:39.149Z,101229.66
2022-10-13T12:54:50.296Z,101233.58
2022-10-13T12:59:58.451Z,101229.28
2022-10-13T13:05:04.176Z,101233.45
2022-10-13T13:10:18.234Z,101236.55
2022-10-13T13:15:33.106Z,101237.05
2022-10-13T13:20:38.616Z,101240.58
2022-10-13T13:25:44.219Z,101246.47
2022-10-13T13:30:49.681Z,101234.32
2022-10-13T13:35:55.523Z,101233.34
2022-10-13T13:41:03.855Z,101238.52
2022-10-13T13:46:10.881Z,101241.72
2022-10-13T13:51:17.297Z,101243.56
2022-10-13T13:56:23.358Z,101239.63
2022-10-13T14:01:29.976Z,101240.61
2022-10-13T14:06:36.670Z,101236.67
2022-10-13T14:11:42.228Z,101241.95
2022-10-13T14:16:48.029Z,101237.27
2022-10-13T14:21:53.484Z,101248.84
2022-10-13T14:26:59.081Z,101241.95
2022-10-13T14:32:05.586Z,101236.66
2022-10-13T14:37:11.154Z,101240.58
2022-10-13T14:42:16.603Z,101237.27
2022-10-13T14:47:22.722Z,101233.08
2022-10-13T14:52:28.438Z,101227.53
2022-10-13T14:57:33.821Z,101225.06
2022-10-13T15:02:39.406Z,101224.81
2022-10-13T15:07:44.866Z,101221.45
2022-10-13T15:12:50.362Z,101217.03
2022-10-13T15:17:56.293Z,101217.61
2022-10-13T15:23:01.842Z,101204.73
2022-10-13T15:28:07.691Z,101194.98
2022-10-13T15:33:13.483Z,101191.03
2022-10-13T15:38:20.865Z,101195.58
2022-10-13T15:43:26.470Z,101204.00
2022-10-13T15:48:33.787Z,101196.46
2022-10-13T15:53:39.604Z,101200.14
2022-10-13T15:58:45.713Z,101194.33
2022-10-13T16:03:55.355Z,101192.34
2022-10-13T16:09:01.869Z,101201.86
2022-10-13T16:14:07.338Z,101197.28
2022-10-13T16:19:12.819Z,101192.63
2022-10-13T16:24:18.824Z,101190.89
2022-10-13T16:29:24.832Z,101190.09
2022-10-13T16:34:30.547Z,101186.95
2022-10-13T16:39:41.332Z,101183.94
2022-10-13T16:44:43.199Z,101186.09
2022-10-13T16:49:48.672Z,101182.14
2022-10-13T16:54:54.409Z,101183.44
2022-10-13T17:00:00.133Z,101184.62
2022-10-13T17:05:06.985Z,101182.87
2022-10-13T17:10:12.459Z,101184.91
2022-10-13T17:15:19.188Z,101180.05
2022-10-13T17:20:24.739Z,101173.15
2022-10-13T17:25:30.143Z,101181.59
2022-10-13T17:30:35.740Z,101180.56
2022-10-13T17:35:41.361Z,101184.64
2022-10-13T17:40:46.881Z,101189.89
2022-10-13T17:45:52.491Z,101184.72
2022-10-13T17:51:00.940Z,101185.75
2022-10-13T17:56:09.267Z,101176.91
2022-10-13T18:01:18.842Z,101173.56
2022-10-13T18:06:26.316Z,101175.45
2022-10-13T18:11:32.437Z,101173.18
2022-10-13T18:16:38.541Z,101172.25
2022-10-13T18:21:44.096Z,101177.42
2022-10-13T18:26:49.631Z,101175.23
2022-10-13T18:31:56.641Z,101168.42
2022-10-13T18:37:02.111Z,101165.97
2022-10-13T18:42:07.647Z,101167.31
2022-10-13T18:47:14.433Z,101164.62
2022-10-13T18:52:20.056Z,101159.06
2022-10-13T18:57:25.598Z,101155.02
2022-10-13T19:02:31.289Z,101164.92
2022-10-13T19:07:39.034Z,101153.31
2022-10-13T19:12:43.829Z,101154.00
2022-10-13T19:17:49.624Z,101152.41
2022-10-13T19:22:55.160Z,101143.19
2022-10-13T19:28:01.154Z,101149.07
2022-10-13T19:33:08.148Z,101147.98
2022-10-13T19:38:38.356Z,101145.02
2022-10-13T19:43:43.897Z,101140.64
2022-10-13T19:48:49.690Z,101141.58
2022-10-13T19:53:58.334Z,101156.09
2022-10-13T19:59:05.064Z,101151.29
2022-10-13T20:04:11.285Z,101147.88
2022-10-13T20:09:21.971Z,101147.77
2022-10-13T20:14:28.568Z,101150.27
2022-10-13T20:19:34.233Z,101144.61
2022-10-13T20:24:40.910Z,101143.55
2022-10-13T20:29:48.084Z,101140.48
2022-10-13T20:34:55.997Z,101135.33
2022-10-13T20:40:01.702Z,101139.94
2022-10-13T20:45:08.052Z,101137.34
2022-10-13T20:50:15.895Z,101139.27
2022-10-13T20:55:21.432Z,101124.77
2022-10-13T21:00:27.192Z,101126.88
2022-10-13T21:05:34.035Z,101134.78
2022-10-13T21:10:39.856Z,101126.50
2022-10-13T21:15:47.122Z,101127.84
2022-10-13T21:20:54.355Z,101125.15
2022-10-13T21:26:02.805Z,101121.41
2022-10-13T21:31:10.967Z,101118.23
2022-10-13T21:36:19.694Z,101123.42
2022-10-13T21:41:25.649Z,101119.97
2022-10-13T21:46:33.165Z,101122.75
2022-10-13T21:51:40.673Z,101121.60
2022-10-13T21:56:46.173Z,101117.24
2022-10-13T22:01:51.578Z,101112.06
2022-10-13T22:06:56.973Z,101118.77
2022-10-13T22:12:03.250Z,101120.50
2022-10-13T22:17:08.871Z,101115.70
2022-10-13T22:22:16.084Z,101117.58
2022-10-13T22:27:21.953Z,101110.95
2022-10-13T22:32:27.762Z,101110.27
2022-10-13T22:37:33.234Z,101117.80
2022-10-13T22:42:38.622Z,101110.81
2022-10-13T22:47:44.258Z,101112.04
2022-10-13T22:52:49.957Z,101106.40
2022-10-13T22:57:55.332Z,101110.59
2022-10-13T23:03:00.803Z,101098.92
2022-10-13T23:08:06.452Z,101089.12
2022-10-13T23:13:11.911Z,101089.40
2022-10-13T23:18:17.748Z,101088.26
2022-10-13T23:23:23.261Z,101087.20
2022-10-13T23:28:28.788Z,101084.61
2022-10-13T23:33:35.706Z,101088.54
2022-10-13T23:38:41.156Z,101088.83
2022-10-13T23:43:46.849Z,101080.20
2022-10-13T23:48:52.777Z,101074.34
2022-10-13T23:53:59.355Z,101070.70
2022-10-13T23:59:05.268Z,101069.45
